Dillman, Indiana
Current Conditions -  °F | °C
As of 4:15 AM on Wednesday 22 Oct 2014 (Local Time) from KHHG Reporting Station
Clear Clear  
Wind Chill: 37°   Ceiling: Unl
Heat Index: 37°   Visibility: 10mi
Dew Point: 35°   Wind: 3mph
Humidity: 93%   Direction: 350°N
Pressure: 30.25"   Gusts: NA
Location:  40.6897°N, 85.3916°W
Report Text: KHHG 220815Z AUTO 35003KT 10SM CLR 03/02 A3025 RMK AO2 T00250015
Loading
Personal Weather Stations






























Interactive Weather Map
Tropical Storm Tracking
New forecast layout! Learn more

10-Day Weather Forecast

Advertisements
Track Severe Weather on mobile